Terminal Aerodrome Forecast
Issued by NWS

Home | Current Version | Previous Version | Text Only | Print | Product List | Glossary On
Versions: 1 2 3 4 5 6 7 8 9 10 11 12 13 14 15 16 17 18 19 20
000
FTUS44 KTSA 241720
TAFFYV
TAF
KFYV 241720Z 2418/2518 18012KT P6SM SCT250
     FM242000 17013G21KT P6SM SCT250
     FM250000 17005KT P6SM SCT250
     FM251400 18015G23KT P6SM BKN250=

USA.gov is the U.S. government's official web portal to all federal, state and local government web resources and services.